シンガポール/チャンギ の空港の天気 - METARとTAF

シンガポール・チャンギ国際空港 ( WSSS / SIN ) - シンガポール Changi
飛行場実況気象(Metar)
観測時間04/26 19:00 SGT (04/26 11:00 UTC)
風向・風速北北西 2m/s
視程6000m
天気現象弱いしゅう雨
少しの雲 雲底高度 300m
少しの雲 雲底高度 460m
少しの雲 雲底高度 520m
全天の4割程度の雲 雲底高度 760m
気温25℃
湿度94%
気圧1007hPa
METARWSSS 261100Z 34003KT 270V030 6000 -SHRA FEW010 FEW015TCU FEW017CB SCT025 25/24 Q1007 RETS NOSIG
過去の天気等 Google飛行場航空写真 Wunderground天気予報

過去48時間のMETAR

飛行場予報(TAF)
発表時間: 4/26 17:18 SGT (4/26 09:18 UTC)
予報対象時間: 26日17時 SGT ~ 27日20時 SGT
風向・風速西 4m/s
視程10km以上
少しの積乱雲 雲底高度 550m
全天の4割程度の雲 雲底高度 610m
26日17時 SGT ~ 26日19時 SGT に一時的に
視程3,000m
天気現象雷雨
少しの積乱雲 雲底高度 370m
全天の8割程度の雲 雲底高度 460m
27日15時 SGT ~ 27日19時 SGT に一時的に
視程3,000m
天気現象雷雨
少しの積乱雲 雲底高度 370m
全天の8割程度の雲 雲底高度 460m
TAF AMD WSSS 260918Z 2609/2712 28007KT 9999 FEW018CB SCT020
TEMPO 2609/2611 3000 TSRA FEW012CB BKN015
TEMPO 2707/2711 3000 TSRA FEW012CB BKN015